Wan Hai 221 — S6SK — position and weather

sailwx.info

Track history (hours):
 
Tides and Currents Weather Stations Pressure Air Temp Water Temp Dewpoint Dewpoint Depression Visibility Wind Speed Wind Dir Waves Ship Positions

Wan Hai 221

Last reported at 2017-Dec-17 15:28 UTC. Time now 2017-Dec-17 15:49 UTC.
Position N 35°36' E 139°46'.

Length 162 m; draft 5.3 m.

Type: Cargo ship. MMSI: 564461570.

Date/timePositionNaut miles runAvg speedWind from/ knotsBaromVisibWave heightAir tempDewpointWater temp
2017-Dec-17 15:28N 35°36' E 139°46'0 0.0
2017-Dec-17 14:55N 35°36' E 139°46'0 0.0
2017-Dec-17 14:22N 35°36' E 139°46'0 0.0
2017-Dec-17 13:55N 35°36' E 139°46'0 0.0
2017-Dec-17 13:28N 35°36' E 139°46'0 0.0
2017-Dec-17 12:19N 35°36' E 139°46'0 0.0
2017-Dec-17 11:43N 35°36' E 139°46'0 0.0
2017-Dec-17 11:25N 35°36' E 139°46'0 0.0
2017-Dec-17 10:58N 35°36' E 139°46'1 3.2
2017-Dec-17 10:30N 35°35' E 139°48'5 9.6
2017-Dec-17 10:00N 35°32' E 139°52'612.7
2017-Dec-17 09:31N 35°26' E 139°49'713.2
2017-Dec-17 09:01N 35°21' E 139°45'611.6
2017-Dec-17 08:31N 35°15' E 139°47'611.8
2017-Dec-17 08:01N 35°09' E 139°47'4 8.1
2017-Dec-17 07:30N 35°06' E 139°45'5 9.4
2017-Dec-17 07:00N 35°01' E 139°43'714.5
2017-Dec-17 06:31N 34°54' E 139°40'714.5
2017-Dec-17 06:00N 34°48' E 139°37'914.7
2017-Dec-17 05:23N 34°39' E 139°33'514.3
2017-Dec-17 05:00N 34°37' E 139°27'815.9
2017-Dec-17 04:30N 34°36' E 139°17'815.8
2017-Dec-17 04:00N 34°34' E 139°08'816.3
2017-Dec-17 03:30N 34°30' E 138°59'815.7
2017-Dec-17 03:00N 34°27' E 138°50'816.0
2017-Dec-17 02:30N 34°23' E 138°42'816.1
2017-Dec-17 01:59N 34°19' E 138°33'915.3
2017-Dec-17 01:26N 34°16' E 138°24'9714.4
2017-Dec-16 18:42N 33°34' E 136°38'  
2017-Dec-14 08:33N 25°45' E 122°10'1112.6
2017-Dec-14 07:42N 25°42' E 121°58'212.5
2017-Dec-14 07:30N 25°42' E 121°56'612.8
2017-Dec-14 07:01N 25°40' E 121°49'612.8
2017-Dec-14 06:31N 25°38' E 121°42'713.2
2017-Dec-14 06:01N 25°34' E 121°36'713.6
2017-Dec-14 05:30N 25°30' E 121°30'714.3
2017-Dec-14 05:00N 25°25' E 121°24'714.3
2017-Dec-14 04:30N 25°19' E 121°20'612.2
2017-Dec-14 04:00N 25°13' E 121°18'511.0
2017-Dec-14 03:30N 25°09' E 121°22'2 3.5
2017-Dec-14 02:59N 25°10' E 121°24'0 0.0
2017-Dec-14 02:29N 25°10' E 121°24'0 0.0
2017-Dec-14 01:59N 25°10' E 121°24'0 0.0
2017-Dec-14 01:26N 25°10' E 121°24'0 0.1
2017-Dec-14 00:59N 25°10' E 121°24'0 0.1
2017-Dec-14 00:29N 25°10' E 121°24'0 0.0
2017-Dec-13 23:59N 25°10' E 121°24'0 0.0
2017-Dec-13 23:29N 25°10' E 121°24'0 0.0
2017-Dec-13 22:59N 25°10' E 121°24'0 0.0
2017-Dec-13 22:29N 25°10' E 121°24'0 0.0
2017-Dec-13 21:56N 25°10' E 121°24'0 0.1
2017-Dec-13 21:29N 25°10' E 121°24'0 0.0
2017-Dec-13 20:59N 25°10' E 121°24'0 0.1
2017-Dec-13 20:23N 25°10' E 121°24'0 0.0
2017-Dec-13 19:56N 25°10' E 121°24'0 0.0
2017-Dec-13 19:29N 25°10' E 121°24'0 0.0
2017-Dec-13 18:59N 25°10' E 121°24'0 0.1
2017-Dec-13 18:29N 25°10' E 121°24'0 0.1
2017-Dec-13 17:59N 25°10' E 121°24'0 0.1
2017-Dec-13 17:29N 25°10' E 121°24'0 0.0
2017-Dec-13 16:50N 25°10' E 121°24'0 0.2
2017-Dec-13 16:29N 25°10' E 121°24'0 0.1
2017-Dec-13 15:59N 25°10' E 121°24'0 0.1
2017-Dec-13 15:29N 25°10' E 121°24'0 0.0
2017-Dec-13 14:56N 25°10' E 121°24'0 0.4
2017-Dec-13 14:30N 25°10' E 121°23'3 6.3
2017-Dec-13 14:01N 25°10' E 121°20'3 6.8
2017-Dec-13 13:30N 25°12' E 121°18'4 9.0
2017-Dec-13 13:00N 25°14' E 121°13'611.4
2017-Dec-13 12:30N 25°12' E 121°07'510.6
2017-Dec-13 12:01N 25°09' E 121°02'510.1
2017-Dec-13 11:30N 25°07' E 120°57'510.3
2017-Dec-13 11:01N 25°02' E 120°54'510.0
2017-Dec-13 10:30N 24°58' E 120°52'9410.5
2017-Dec-13 01:34N 23°40' E 119°54'110.9
2017-Dec-13 01:30N 23°39' E 119°54'610.5
2017-Dec-13 00:59N 23°34' E 119°54'510.5
2017-Dec-13 00:28N 23°28' E 119°54'511.4
2017-Dec-13 00:00N 23°23' E 119°54'912.9
2017-Dec-12 23:18N 23°14' E 119°54'514.0
2017-Dec-12 22:58N 23°10' E 119°55'714.2
2017-Dec-12 22:30N 23°03' E 119°55'815.3
2017-Dec-12 22:01N 22°56' E 119°59'815.8
2017-Dec-12 21:30N 22°49' E 120°03'815.9
2017-Dec-12 21:00N 22°43' E 120°08'713.8
2017-Dec-12 20:30N 22°38' E 120°13'4 8.1
2017-Dec-12 20:00N 22°36' E 120°17'2 3.2
2017-Dec-12 19:26N 22°35' E 120°18'0 0.0
2017-Dec-12 18:56N 22°35' E 120°18'0 0.0
2017-Dec-12 18:27N 22°35' E 120°18'0 0.0
2017-Dec-12 17:56N 22°35' E 120°18'0 0.0
2017-Dec-12 17:26N 22°35' E 120°18'0 0.0
2017-Dec-12 16:44N 22°35' E 120°18'0 0.0
2017-Dec-12 16:27N 22°35' E 120°18'0 0.0
2017-Dec-12 15:57N 22°35' E 120°18'0 0.0
2017-Dec-12 15:26N 22°35' E 120°18'0 0.0
2017-Dec-12 14:50N 22°35' E 120°18'0 0.0
2017-Dec-12 14:26N 22°35' E 120°18'0 0.0
2017-Dec-12 13:56N 22°35' E 120°18'0 0.0
2017-Dec-12 13:20N 22°35' E 120°18'0 0.0
2017-Dec-12 12:57N 22°35' E 120°18'0 0.2
2017-Dec-12 12:30N 22°34' E 120°18'2 4.2
2017-Dec-12 12:00N 22°36' E 120°17'3 6.4
2017-Dec-12 11:30N 22°37' E 120°14'1 2.5
2017-Dec-12 11:01N 22°37' E 120°13'0 0.1
2017-Dec-12 10:27N 22°37' E 120°13'0 0.0
2017-Dec-12 09:57N 22°37' E 120°13'0 0.0
2017-Dec-12 09:27N 22°37' E 120°13'0 0.0
2017-Dec-12 08:57N 22°37' E 120°13'0 0.1
2017-Dec-12 08:27N 22°37' E 120°13'0 0.1
2017-Dec-12 07:57N 22°36' E 120°13'0 0.1
2017-Dec-12 07:27N 22°36' E 120°13'0 0.0
2017-Dec-12 06:57N 22°36' E 120°13'0 0.0
2017-Dec-12 06:27N 22°36' E 120°13'0 0.1
2017-Dec-12 05:57N 22°36' E 120°13'0 0.1
2017-Dec-12 05:27N 22°36' E 120°13'0 0.0
2017-Dec-12 04:57N 22°36' E 120°13'0 0.0
2017-Dec-12 04:27N 22°36' E 120°13'0 0.0
2017-Dec-12 03:58N 22°36' E 120°13'0 0.0
2017-Dec-12 03:27N 22°36' E 120°13'0 0.0
2017-Dec-12 02:57N 22°36' E 120°13'0 0.0
2017-Dec-12 02:27N 22°36' E 120°13'0 0.0
2017-Dec-12 01:57N 22°36' E 120°13'0 0.0
2017-Dec-12 01:27N 22°36' E 120°13'0 0.1
2017-Dec-12 00:57N 22°37' E 120°13'0 0.1
2017-Dec-12 00:28N 22°37' E 120°13'0 0.1
2017-Dec-11 23:58N 22°37' E 120°13'1 1.1
2017-Dec-11 23:30N 22°36' E 120°12'3 6.0
2017-Dec-11 23:00N 22°35' E 120°09'4 8.8
2017-Dec-11 22:30N 22°32' E 120°06'713.7
2017-Dec-11 22:00N 22°26' E 120°01'713.7
2017-Dec-11 21:30N 22°21' E 119°57'  
Track history (hours):
 
Tides and Currents Weather Stations Pressure Air Temp Water Temp Dewpoint Dewpoint Depression Visibility Wind Speed Wind Dir Waves Ship Positions

Wan Hai 221

Last reported at 2017-Dec-17 15:28 UTC. Time now 2017-Dec-17 15:49 UTC.
Position N 35°36' E 139°46'.

Length 162 m; draft 5.3 m.

Type: Cargo ship. MMSI: 564461570.

Date/timePositionNaut miles runAvg speedWind from/ knotsBaromVisibWave heightAir tempDewpointWater temp
2017-Dec-17 15:28N 35°36' E 139°46'0 0.0
2017-Dec-17 14:55N 35°36' E 139°46'0 0.0
2017-Dec-17 14:22N 35°36' E 139°46'0 0.0
2017-Dec-17 13:55N 35°36' E 139°46'0 0.0
2017-Dec-17 13:28N 35°36' E 139°46'0 0.0
2017-Dec-17 12:19N 35°36' E 139°46'0 0.0
2017-Dec-17 11:43N 35°36' E 139°46'0 0.0
2017-Dec-17 11:25N 35°36' E 139°46'0 0.0
2017-Dec-17 10:58N 35°36' E 139°46'1 3.2
2017-Dec-17 10:30N 35°35' E 139°48'5 9.6
2017-Dec-17 10:00N 35°32' E 139°52'612.7
2017-Dec-17 09:31N 35°26' E 139°49'713.2
2017-Dec-17 09:01N 35°21' E 139°45'611.6
2017-Dec-17 08:31N 35°15' E 139°47'611.8
2017-Dec-17 08:01N 35°09' E 139°47'4 8.1
2017-Dec-17 07:30N 35°06' E 139°45'5 9.4
2017-Dec-17 07:00N 35°01' E 139°43'714.5
2017-Dec-17 06:31N 34°54' E 139°40'714.5
2017-Dec-17 06:00N 34°48' E 139°37'914.7
2017-Dec-17 05:23N 34°39' E 139°33'514.3
2017-Dec-17 05:00N 34°37' E 139°27'815.9
2017-Dec-17 04:30N 34°36' E 139°17'815.8
2017-Dec-17 04:00N 34°34' E 139°08'816.3
2017-Dec-17 03:30N 34°30' E 138°59'815.7
2017-Dec-17 03:00N 34°27' E 138°50'816.0
2017-Dec-17 02:30N 34°23' E 138°42'816.1
2017-Dec-17 01:59N 34°19' E 138°33'915.3
2017-Dec-17 01:26N 34°16' E 138°24'9714.4
2017-Dec-16 18:42N 33°34' E 136°38'  
2017-Dec-14 08:33N 25°45' E 122°10'1112.6
2017-Dec-14 07:42N 25°42' E 121°58'212.5
2017-Dec-14 07:30N 25°42' E 121°56'612.8
2017-Dec-14 07:01N 25°40' E 121°49'612.8
2017-Dec-14 06:31N 25°38' E 121°42'713.2
2017-Dec-14 06:01N 25°34' E 121°36'713.6
2017-Dec-14 05:30N 25°30' E 121°30'714.3
2017-Dec-14 05:00N 25°25' E 121°24'714.3
2017-Dec-14 04:30N 25°19' E 121°20'612.2
2017-Dec-14 04:00N 25°13' E 121°18'511.0
2017-Dec-14 03:30N 25°09' E 121°22'2 3.5
2017-Dec-14 02:59N 25°10' E 121°24'0 0.0
2017-Dec-14 02:29N 25°10' E 121°24'0 0.0
2017-Dec-14 01:59N 25°10' E 121°24'0 0.0
2017-Dec-14 01:26N 25°10' E 121°24'0 0.1
2017-Dec-14 00:59N 25°10' E 121°24'0 0.1
2017-Dec-14 00:29N 25°10' E 121°24'0 0.0
2017-Dec-13 23:59N 25°10' E 121°24'0 0.0
2017-Dec-13 23:29N 25°10' E 121°24'0 0.0
2017-Dec-13 22:59N 25°10' E 121°24'0 0.0
2017-Dec-13 22:29N 25°10' E 121°24'0 0.0
2017-Dec-13 21:56N 25°10' E 121°24'0 0.1
2017-Dec-13 21:29N 25°10' E 121°24'0 0.0
2017-Dec-13 20:59N 25°10' E 121°24'0 0.1
2017-Dec-13 20:23N 25°10' E 121°24'0 0.0
2017-Dec-13 19:56N 25°10' E 121°24'0 0.0
2017-Dec-13 19:29N 25°10' E 121°24'0 0.0
2017-Dec-13 18:59N 25°10' E 121°24'0 0.1
2017-Dec-13 18:29N 25°10' E 121°24'0 0.1
2017-Dec-13 17:59N 25°10' E 121°24'0 0.1
2017-Dec-13 17:29N 25°10' E 121°24'0 0.0
2017-Dec-13 16:50N 25°10' E 121°24'0 0.2
2017-Dec-13 16:29N 25°10' E 121°24'0 0.1
2017-Dec-13 15:59N 25°10' E 121°24'0 0.1
2017-Dec-13 15:29N 25°10' E 121°24'0 0.0
2017-Dec-13 14:56N 25°10' E 121°24'0 0.4
2017-Dec-13 14:30N 25°10' E 121°23'3 6.3
2017-Dec-13 14:01N 25°10' E 121°20'3 6.8
2017-Dec-13 13:30N 25°12' E 121°18'4 9.0
2017-Dec-13 13:00N 25°14' E 121°13'611.4
2017-Dec-13 12:30N 25°12' E 121°07'510.6
2017-Dec-13 12:01N 25°09' E 121°02'510.1
2017-Dec-13 11:30N 25°07' E 120°57'510.3
2017-Dec-13 11:01N 25°02' E 120°54'510.0
2017-Dec-13 10:30N 24°58' E 120°52'9410.5
2017-Dec-13 01:34N 23°40' E 119°54'110.9
2017-Dec-13 01:30N 23°39' E 119°54'610.5
2017-Dec-13 00:59N 23°34' E 119°54'510.5
2017-Dec-13 00:28N 23°28' E 119°54'511.4
2017-Dec-13 00:00N 23°23' E 119°54'912.9
2017-Dec-12 23:18N 23°14' E 119°54'514.0
2017-Dec-12 22:58N 23°10' E 119°55'714.2
2017-Dec-12 22:30N 23°03' E 119°55'815.3
2017-Dec-12 22:01N 22°56' E 119°59'815.8
2017-Dec-12 21:30N 22°49' E 120°03'815.9
2017-Dec-12 21:00N 22°43' E 120°08'713.8
2017-Dec-12 20:30N 22°38' E 120°13'4 8.1
2017-Dec-12 20:00N 22°36' E 120°17'2 3.2
2017-Dec-12 19:26N 22°35' E 120°18'0 0.0
2017-Dec-12 18:56N 22°35' E 120°18'0 0.0
2017-Dec-12 18:27N 22°35' E 120°18'0 0.0
2017-Dec-12 17:56N 22°35' E 120°18'0 0.0
2017-Dec-12 17:26N 22°35' E 120°18'0 0.0
2017-Dec-12 16:44N 22°35' E 120°18'0 0.0
2017-Dec-12 16:27N 22°35' E 120°18'0 0.0
2017-Dec-12 15:57N 22°35' E 120°18'0 0.0
2017-Dec-12 15:26N 22°35' E 120°18'0 0.0
2017-Dec-12 14:50N 22°35' E 120°18'0 0.0
2017-Dec-12 14:26N 22°35' E 120°18'0 0.0
2017-Dec-12 13:56N 22°35' E 120°18'0 0.0
2017-Dec-12 13:20N 22°35' E 120°18'0 0.0
2017-Dec-12 12:57N 22°35' E 120°18'0 0.2
2017-Dec-12 12:30N 22°34' E 120°18'2 4.2
2017-Dec-12 12:00N 22°36' E 120°17'3 6.4
2017-Dec-12 11:30N 22°37' E 120°14'1 2.5
2017-Dec-12 11:01N 22°37' E 120°13'0 0.1
2017-Dec-12 10:27N 22°37' E 120°13'0 0.0
2017-Dec-12 09:57N 22°37' E 120°13'0 0.0
2017-Dec-12 09:27N 22°37' E 120°13'0 0.0
2017-Dec-12 08:57N 22°37' E 120°13'0 0.1
2017-Dec-12 08:27N 22°37' E 120°13'0 0.1
2017-Dec-12 07:57N 22°36' E 120°13'0 0.1
2017-Dec-12 07:27N 22°36' E 120°13'0 0.0
2017-Dec-12 06:57N 22°36' E 120°13'0 0.0
2017-Dec-12 06:27N 22°36' E 120°13'0 0.1
2017-Dec-12 05:57N 22°36' E 120°13'0 0.1
2017-Dec-12 05:27N 22°36' E 120°13'0 0.0
2017-Dec-12 04:57N 22°36' E 120°13'0 0.0
2017-Dec-12 04:27N 22°36' E 120°13'0 0.0
2017-Dec-12 03:58N 22°36' E 120°13'0 0.0
2017-Dec-12 03:27N 22°36' E 120°13'0 0.0
2017-Dec-12 02:57N 22°36' E 120°13'0 0.0
2017-Dec-12 02:27N 22°36' E 120°13'0 0.0
2017-Dec-12 01:57N 22°36' E 120°13'0 0.0
2017-Dec-12 01:27N 22°36' E 120°13'0 0.1
2017-Dec-12 00:57N 22°37' E 120°13'0 0.1
2017-Dec-12 00:28N 22°37' E 120°13'0 0.1
2017-Dec-11 23:58N 22°37' E 120°13'1 1.1
2017-Dec-11 23:30N 22°36' E 120°12'3 6.0
2017-Dec-11 23:00N 22°35' E 120°09'4 8.8
2017-Dec-11 22:30N 22°32' E 120°06'713.7
2017-Dec-11 22:00N 22°26' E 120°01'713.7
2017-Dec-11 21:30N 22°21' E 119°57'  

Dump ship's entire track history